createdAt,value
2019-05-29T00:00:36.288Z,15.10
2019-05-29T00:03:06.230Z,15.10
2019-05-29T00:05:35.864Z,15.10
2019-05-29T00:08:04.437Z,15.10
2019-05-29T00:10:33.385Z,15.20
2019-05-29T00:13:01.889Z,15.20
2019-05-29T00:15:30.406Z,15.20
2019-05-29T00:17:58.902Z,15.30
2019-05-29T00:20:27.434Z,15.20
2019-05-29T00:22:55.868Z,15.30
2019-05-29T00:25:24.380Z,15.40
2019-05-29T00:27:52.813Z,15.40
2019-05-29T00:30:21.317Z,15.40
2019-05-29T00:32:50.160Z,15.40
2019-05-29T00:35:18.685Z,15.40
2019-05-29T00:37:47.153Z,15.30
2019-05-29T00:40:17.084Z,15.40
2019-05-29T00:42:45.697Z,15.40
2019-05-29T00:45:15.523Z,15.40
2019-05-29T00:47:44.086Z,15.40
2019-05-29T00:50:14.112Z,15.40
2019-05-29T00:52:42.737Z,15.40
2019-05-29T00:55:12.515Z,15.50
2019-05-29T00:57:41.110Z,15.50
2019-05-29T01:00:11.095Z,15.50
2019-05-29T01:02:39.728Z,15.50
2019-05-29T01:05:08.354Z,15.60
2019-05-29T01:07:37.223Z,15.60
2019-05-29T01:10:06.364Z,15.70
2019-05-29T01:12:34.857Z,15.70
2019-05-29T01:15:03.721Z,15.70
2019-05-29T01:17:32.217Z,15.70
2019-05-29T01:20:00.913Z,15.70
2019-05-29T01:22:29.362Z,15.70
2019-05-29T01:24:58.233Z,15.60
2019-05-29T01:27:26.569Z,15.60
2019-05-29T01:29:55.064Z,15.60
2019-05-29T01:32:23.776Z,15.60
2019-05-29T01:34:52.422Z,15.60
2019-05-29T01:37:20.846Z,15.60
2019-05-29T01:39:49.345Z,15.60
2019-05-29T01:42:17.796Z,15.50
2019-05-29T01:44:46.292Z,15.60
2019-05-29T01:47:15.359Z,15.60
2019-05-29T01:49:44.246Z,15.60
2019-05-29T01:52:12.704Z,15.50
2019-05-29T01:54:41.289Z,15.60
2019-05-29T01:57:09.733Z,15.60
2019-05-29T01:59:38.241Z,15.60
2019-05-29T02:02:06.806Z,15.50
2019-05-29T02:04:35.309Z,15.50
2019-05-29T02:07:03.807Z,15.50
2019-05-29T02:09:32.246Z,15.50
2019-05-29T02:12:00.765Z,15.60
2019-05-29T02:14:29.190Z,15.60
2019-05-29T02:16:58.062Z,15.60
2019-05-29T02:19:26.523Z,15.50
2019-05-29T02:21:55.128Z,15.50
2019-05-29T02:24:23.550Z,15.50
2019-05-29T02:26:52.166Z,15.50
2019-05-29T02:29:21.050Z,15.40
2019-05-29T02:31:49.653Z,15.40
2019-05-29T02:34:19.850Z,15.50
2019-05-29T02:36:48.407Z,15.40
2019-05-29T02:39:18.535Z,15.40
2019-05-29T02:41:47.152Z,15.40
2019-05-29T02:44:15.601Z,15.30
2019-05-29T02:46:44.100Z,15.30
2019-05-29T02:49:13.242Z,15.20
2019-05-29T03:02:16.877Z,15.00
2019-05-29T03:04:45.375Z,14.90
2019-05-29T03:07:13.885Z,14.90
2019-05-29T03:09:42.324Z,14.80
2019-05-29T03:12:10.816Z,14.80
2019-05-29T03:14:39.253Z,14.80
2019-05-29T03:17:08.251Z,14.60
2019-05-29T03:19:36.794Z,14.50
2019-05-29T03:22:05.301Z,14.40
2019-05-29T03:24:35.200Z,14.40
2019-05-29T03:27:03.893Z,14.30
2019-05-29T03:29:34.119Z,14.30
2019-05-29T03:32:02.641Z,14.30
2019-05-29T03:34:37.294Z,14.30
2019-05-29T03:37:01.884Z,14.30
2019-05-29T03:39:30.447Z,14.20
2019-05-29T03:41:59.318Z,14.20
2019-05-29T03:44:28.706Z,14.20
2019-05-29T03:46:57.759Z,14.20
2019-05-29T03:49:26.816Z,14.10
2019-05-29T03:51:55.577Z,14.10
2019-05-29T03:54:24.023Z,14.20
2019-05-29T03:56:52.525Z,14.30
2019-05-29T03:59:21.017Z,14.20
2019-05-29T04:01:49.498Z,14.30
2019-05-29T04:04:17.933Z,14.30
2019-05-29T04:06:47.378Z,14.20
2019-05-29T04:09:16.048Z,14.20
2019-05-29T04:11:45.217Z,14.10
2019-05-29T04:14:13.663Z,14.10
2019-05-29T04:16:58.280Z,14.10
2019-05-29T04:19:15.030Z,14.10
2019-05-29T04:21:46.124Z,14.10
2019-05-29T04:24:18.112Z,14.00
2019-05-29T04:26:48.612Z,14.00
2019-05-29T04:29:17.141Z,13.90
2019-05-29T04:31:46.127Z,13.90
2019-05-29T04:34:14.445Z,13.90
2019-05-29T04:36:42.930Z,13.90
2019-05-29T04:39:11.808Z,14.00
2019-05-29T04:41:40.301Z,14.00
2019-05-29T04:44:09.208Z,14.00
2019-05-29T04:46:38.488Z,14.00
2019-05-29T04:49:07.914Z,14.10
2019-05-29T04:51:37.373Z,14.20
2019-05-29T04:54:06.073Z,14.20
2019-05-29T04:56:34.848Z,14.20
2019-05-29T04:59:03.486Z,14.30
2019-05-29T05:01:33.010Z,14.40
2019-05-29T05:04:02.059Z,14.50
2019-05-29T05:06:31.217Z,14.60
2019-05-29T05:08:59.868Z,14.70
2019-05-29T05:11:29.271Z,14.70
2019-05-29T05:14:01.452Z,14.80
2019-05-29T05:16:29.710Z,14.90
2019-05-29T05:18:58.693Z,14.90
2019-05-29T05:21:27.638Z,15.00
2019-05-29T05:23:56.476Z,15.10
2019-05-29T05:26:24.897Z,15.20
2019-05-29T05:28:53.489Z,15.30
2019-05-29T05:31:21.980Z,15.30
2019-05-29T05:33:50.376Z,15.50
2019-05-29T05:36:18.821Z,15.60
2019-05-29T05:38:47.204Z,15.80
2019-05-29T05:41:15.635Z,15.90
2019-05-29T05:43:44.129Z,15.90
2019-05-29T05:46:12.613Z,16.10
2019-05-29T05:48:41.605Z,16.30
2019-05-29T05:51:10.540Z,16.60
2019-05-29T05:53:39.565Z,17.00
2019-05-29T05:56:08.009Z,17.50
2019-05-29T05:58:37.834Z,18.00
2019-05-29T06:01:06.719Z,18.60
2019-05-29T06:03:35.921Z,19.00
2019-05-29T06:06:04.525Z,19.40
2019-05-29T06:08:33.986Z,19.70
2019-05-29T06:11:02.880Z,20.10
2019-05-29T06:13:32.145Z,20.40
2019-05-29T06:16:01.197Z,20.70
2019-05-29T06:18:29.736Z,21.10
2019-05-29T06:20:58.215Z,21.30
2019-05-29T06:23:26.797Z,21.60
2019-05-29T06:25:55.228Z,21.80
2019-05-29T06:28:23.729Z,22.20
2019-05-29T06:30:52.541Z,22.40
2019-05-29T06:33:21.030Z,22.80
2019-05-29T06:35:49.464Z,23.00
2019-05-29T06:38:17.965Z,23.20
2019-05-29T06:40:46.432Z,23.60
2019-05-29T06:43:21.536Z,23.60
2019-05-29T06:45:50.386Z,23.50
2019-05-29T06:48:43.157Z,23.60
2019-05-29T06:50:59.067Z,23.60
2019-05-29T06:53:27.640Z,23.60
2019-05-29T06:55:57.585Z,23.90
2019-05-29T06:58:26.550Z,24.00
2019-05-29T07:00:55.054Z,23.90
2019-05-29T07:03:24.205Z,23.70
2019-05-29T07:05:53.071Z,23.50
2019-05-29T07:08:37.377Z,23.50
2019-05-29T07:10:52.214Z,23.80
2019-05-29T07:13:20.745Z,23.90
2019-05-29T07:15:49.460Z,23.80
2019-05-29T07:18:17.973Z,23.90
2019-05-29T07:20:46.995Z,23.80
2019-05-29T07:23:15.698Z,23.80
2019-05-29T07:25:45.648Z,23.80
2019-05-29T07:28:14.397Z,24.10
2019-05-29T07:30:49.695Z,24.10
2019-05-29T07:33:13.508Z,23.90
2019-05-29T07:35:42.076Z,23.90
2019-05-29T07:38:10.887Z,23.90
2019-05-29T07:40:40.696Z,23.90
2019-05-29T07:43:09.622Z,24.10
2019-05-29T07:45:38.117Z,24.00
2019-05-29T07:48:06.565Z,24.00
2019-05-29T07:50:35.062Z,24.20
2019-05-29T07:53:03.532Z,24.00
2019-05-29T07:55:32.105Z,24.00
2019-05-29T07:58:00.558Z,24.10
2019-05-29T08:00:35.885Z,24.40
2019-05-29T08:02:59.729Z,24.30
2019-05-29T08:05:28.240Z,24.10
2019-05-29T08:07:56.665Z,23.90
2019-05-29T08:10:25.269Z,23.80
2019-05-29T08:12:55.768Z,23.80
2019-05-29T08:15:24.382Z,23.90
2019-05-29T08:17:52.863Z,23.90
2019-05-29T08:20:21.733Z,23.40
2019-05-29T08:22:50.593Z,23.50
2019-05-29T08:25:19.557Z,23.60
2019-05-29T08:27:48.900Z,23.70
2019-05-29T08:30:18.980Z,23.60
2019-05-29T08:32:47.445Z,23.70
2019-05-29T08:35:15.923Z,23.50
2019-05-29T08:37:44.996Z,23.60
2019-05-29T08:42:45.786Z,23.70
2019-05-29T08:45:16.512Z,23.60
2019-05-29T08:47:45.614Z,23.60
2019-05-29T08:50:18.714Z,23.40
2019-05-29T08:52:45.996Z,23.40
2019-05-29T08:55:14.972Z,23.40
2019-05-29T08:57:44.208Z,23.50
2019-05-29T09:00:13.753Z,23.50
2019-05-29T09:02:42.592Z,23.40
2019-05-29T09:05:11.967Z,23.20
2019-05-29T09:07:40.870Z,23.20
2019-05-29T09:10:09.525Z,23.30
2019-05-29T09:12:38.010Z,23.10
2019-05-29T09:15:06.599Z,23.00
2019-05-29T09:17:37.494Z,23.00
2019-05-29T09:20:06.717Z,23.20
2019-05-29T09:22:36.163Z,23.20
2019-05-29T09:25:05.261Z,23.40
2019-05-29T09:27:33.741Z,23.30
2019-05-29T09:30:02.267Z,23.30
2019-05-29T09:32:48.767Z,23.40
2019-05-29T09:35:02.190Z,23.70
2019-05-29T09:37:50.196Z,23.60
2019-05-29T09:40:20.996Z,23.90
2019-05-29T09:42:49.912Z,23.90
2019-05-29T09:45:19.569Z,24.10
2019-05-29T09:47:48.645Z,23.90
2019-05-29T09:50:18.728Z,23.90
2019-05-29T09:52:48.255Z,24.00
2019-05-29T09:55:16.777Z,23.90
2019-05-29T09:57:45.265Z,23.70
2019-05-29T10:00:13.890Z,23.80
2019-05-29T10:02:42.378Z,23.70
2019-05-29T10:05:10.813Z,23.60
2019-05-29T10:07:40.064Z,23.20
2019-05-29T10:10:10.566Z,22.90
2019-05-29T10:12:39.061Z,23.10
2019-05-29T10:15:08.502Z,22.90
2019-05-29T10:17:37.373Z,22.80
2019-05-29T10:20:06.030Z,22.60
2019-05-29T10:22:35.031Z,22.70
2019-05-29T10:25:05.874Z,22.80
2019-05-29T10:27:35.332Z,22.90
2019-05-29T10:30:05.868Z,22.80
2019-05-29T10:32:36.169Z,23.00
2019-05-29T10:35:05.737Z,23.00
2019-05-29T10:37:34.607Z,22.90
2019-05-29T10:40:03.181Z,23.00
2019-05-29T10:42:31.952Z,23.40
2019-05-29T10:45:00.376Z,23.60
2019-05-29T10:47:28.887Z,23.80
2019-05-29T10:49:57.335Z,23.50
2019-05-29T10:52:25.828Z,23.60
2019-05-29T10:54:54.490Z,23.80
2019-05-29T10:57:23.072Z,23.70
2019-05-29T10:59:52.802Z,23.80
2019-05-29T11:02:21.470Z,24.00
2019-05-29T11:04:54.603Z,24.10
2019-05-29T11:07:20.217Z,24.10
2019-05-29T11:09:50.165Z,23.90
2019-05-29T11:12:19.365Z,23.60
2019-05-29T11:14:48.513Z,23.80
2019-05-29T11:17:17.076Z,24.10
2019-05-29T11:19:45.565Z,24.40
2019-05-29T11:22:25.672Z,24.40
2019-05-29T11:24:44.361Z,24.20
2019-05-29T11:27:12.794Z,23.90
2019-05-29T11:29:41.818Z,24.00
2019-05-29T11:32:10.846Z,24.00
2019-05-29T11:34:39.369Z,23.80
2019-05-29T11:37:08.374Z,23.80
2019-05-29T11:39:37.511Z,24.00
2019-05-29T11:42:06.514Z,24.20
2019-05-29T11:44:35.009Z,24.60
2019-05-29T11:47:03.661Z,24.50
2019-05-29T11:49:32.141Z,24.30
2019-05-29T11:52:22.866Z,24.10
2019-05-29T11:54:30.875Z,24.10
2019-05-29T11:56:59.327Z,23.80
2019-05-29T11:59:27.895Z,23.60
2019-05-29T12:01:57.389Z,23.70
2019-05-29T12:04:27.192Z,24.00
2019-05-29T12:06:55.727Z,24.30
2019-05-29T12:09:32.805Z,24.40
2019-05-29T12:11:55.962Z,24.40
2019-05-29T12:14:24.659Z,24.20
2019-05-29T12:16:54.142Z,24.10
2019-05-29T12:19:23.918Z,23.90
2019-05-29T12:21:54.305Z,23.80
2019-05-29T12:24:23.167Z,23.80
2019-05-29T12:26:52.423Z,23.70
2019-05-29T12:29:21.286Z,23.50
2019-05-29T12:31:49.785Z,23.50
2019-05-29T12:34:19.435Z,23.50
2019-05-29T12:36:48.316Z,23.40
2019-05-29T12:39:16.869Z,23.50
2019-05-29T12:41:45.370Z,23.60
2019-05-29T12:44:13.880Z,23.50
2019-05-29T12:46:42.744Z,23.60
2019-05-29T12:49:11.240Z,23.50
2019-05-29T12:51:39.679Z,23.60
2019-05-29T12:54:08.753Z,23.60
2019-05-29T12:56:37.179Z,23.80
2019-05-29T13:05:34.053Z,24.20
2019-05-29T13:08:03.064Z,24.00
2019-05-29T13:10:32.377Z,24.10
2019-05-29T13:13:07.038Z,24.10
2019-05-29T13:15:31.226Z,24.10
2019-05-29T13:18:04.156Z,24.10
2019-05-29T13:20:30.153Z,24.20
2019-05-29T13:23:02.734Z,24.40
2019-05-29T13:25:32.765Z,24.50
2019-05-29T13:28:03.063Z,24.40
2019-05-29T13:30:32.464Z,24.40
2019-05-29T13:33:06.549Z,24.40
2019-05-29T13:35:34.194Z,24.30
2019-05-29T13:38:03.265Z,24.30
2019-05-29T13:40:33.910Z,24.40
2019-05-29T13:43:11.476Z,24.40
2019-05-29T13:45:32.860Z,24.40
2019-05-29T13:48:08.069Z,24.40
2019-05-29T13:50:36.543Z,24.50
2019-05-29T13:53:05.489Z,24.50
2019-05-29T13:55:34.173Z,24.60
2019-05-29T13:58:03.798Z,24.60
2019-05-29T14:00:39.722Z,24.50
2019-05-29T14:03:13.978Z,24.40
2019-05-29T14:05:42.482Z,24.60
2019-05-29T14:09:04.945Z,24.70
2019-05-29T14:14:31.963Z,24.70
2019-05-29T14:17:00.468Z,24.60
2019-05-29T14:19:28.902Z,24.60
2019-05-29T14:21:57.585Z,24.50
2019-05-29T14:24:29.472Z,24.50
2019-05-29T14:26:56.246Z,24.50
2019-05-29T14:29:25.163Z,24.60
2019-05-29T14:31:55.199Z,24.40
2019-05-29T14:34:23.663Z,24.40
2019-05-29T14:36:52.174Z,24.20
2019-05-29T14:39:20.687Z,24.10
2019-05-29T14:41:49.874Z,24.20
2019-05-29T14:44:18.325Z,24.20
2019-05-29T14:46:46.812Z,24.40
2019-05-29T14:49:15.812Z,24.30
2019-05-29T14:51:44.317Z,24.30
2019-05-29T14:54:13.135Z,24.20
2019-05-29T14:56:42.193Z,24.20
2019-05-29T14:59:11.266Z,24.20
2019-05-29T15:01:39.881Z,24.20
2019-05-29T15:04:09.589Z,24.20
2019-05-29T15:06:38.223Z,24.20
2019-05-29T15:09:07.665Z,24.20
2019-05-29T15:11:36.374Z,24.20
2019-05-29T15:14:06.111Z,24.10
2019-05-29T15:16:34.929Z,24.00
2019-05-29T15:19:04.956Z,23.90
2019-05-29T15:21:33.577Z,23.80
2019-05-29T15:24:02.555Z,23.90
2019-05-29T15:26:31.217Z,23.90
2019-05-29T15:29:00.031Z,24.00
2019-05-29T15:31:28.985Z,24.00
2019-05-29T15:33:58.414Z,24.00
2019-05-29T15:36:26.994Z,24.00
2019-05-29T15:38:55.804Z,24.10
2019-05-29T15:41:24.434Z,24.10
2019-05-29T15:43:52.865Z,24.10
2019-05-29T15:46:21.369Z,24.10
2019-05-29T15:48:50.377Z,24.10
2019-05-29T15:51:21.720Z,23.90
2019-05-29T15:53:49.289Z,23.70
2019-05-29T15:56:27.157Z,23.50
2019-05-29T15:58:48.022Z,23.30
2019-05-29T16:01:17.985Z,23.30
2019-05-29T16:03:46.717Z,23.30
2019-05-29T16:06:16.006Z,23.20
2019-05-29T16:08:45.090Z,23.30
2019-05-29T16:11:14.625Z,23.40
2019-05-29T16:13:43.249Z,23.30
2019-05-29T16:16:12.871Z,23.30
2019-05-29T16:18:41.581Z,23.20
2019-05-29T16:21:10.635Z,23.10
2019-05-29T16:23:39.218Z,23.10
2019-05-29T16:26:07.670Z,23.00
2019-05-29T16:28:36.153Z,22.90
2019-05-29T16:31:04.624Z,22.90
2019-05-29T16:33:33.165Z,22.90
2019-05-29T16:36:01.677Z,23.00
2019-05-29T16:38:30.794Z,22.90
2019-05-29T16:40:59.378Z,22.90
2019-05-29T16:43:27.902Z,23.00
2019-05-29T16:45:56.413Z,23.00
2019-05-29T16:48:24.914Z,23.00
2019-05-29T16:50:54.017Z,23.00
2019-05-29T16:53:23.319Z,23.00
2019-05-29T16:55:54.080Z,23.00
2019-05-29T16:58:23.259Z,23.00
2019-05-29T17:00:51.735Z,22.90
2019-05-29T17:03:20.210Z,22.90
2019-05-29T17:05:48.641Z,22.90
2019-05-29T17:08:18.143Z,22.80
2019-05-29T17:10:46.720Z,22.70
2019-05-29T17:13:16.482Z,22.70
2019-05-29T17:15:45.054Z,22.60
2019-05-29T17:18:14.705Z,22.50
2019-05-29T17:20:44.626Z,22.60
2019-05-29T17:23:14.879Z,22.50
2019-05-29T17:25:43.957Z,22.40
2019-05-29T17:28:12.445Z,22.40
2019-05-29T17:30:40.879Z,22.40
2019-05-29T17:33:10.861Z,22.40
2019-05-29T17:35:39.289Z,22.30
2019-05-29T17:38:07.776Z,22.30
2019-05-29T17:40:36.393Z,22.20
2019-05-29T17:43:04.924Z,22.20
2019-05-29T17:45:33.358Z,22.20
2019-05-29T17:48:01.822Z,22.10
2019-05-29T17:50:30.257Z,22.10
2019-05-29T17:52:58.758Z,22.10
2019-05-29T17:55:27.184Z,22.00
2019-05-29T17:57:55.972Z,21.90
2019-05-29T18:00:24.722Z,21.90
2019-05-29T18:02:53.385Z,21.90
2019-05-29T18:05:22.921Z,21.80
2019-05-29T18:07:51.352Z,21.80
2019-05-29T18:10:22.012Z,21.80
2019-05-29T18:13:09.510Z,21.70
2019-05-29T18:15:37.989Z,21.50
2019-05-29T18:18:06.714Z,21.60
2019-05-29T18:20:35.221Z,21.60
2019-05-29T18:23:03.683Z,21.60
2019-05-29T18:25:32.162Z,21.50
2019-05-29T18:28:00.731Z,21.50
2019-05-29T18:30:29.329Z,21.40
2019-05-29T18:32:57.813Z,21.30
2019-05-29T18:35:27.072Z,21.30
2019-05-29T18:37:55.657Z,21.30
2019-05-29T18:40:28.403Z,21.00
2019-05-29T18:42:57.321Z,21.20
2019-05-29T18:45:26.756Z,21.10
2019-05-29T18:47:56.159Z,21.20
2019-05-29T18:50:25.624Z,21.10
2019-05-29T18:52:54.310Z,21.10
2019-05-29T18:55:23.287Z,21.10
2019-05-29T18:57:53.042Z,21.00
2019-05-29T19:00:23.374Z,21.00
2019-05-29T19:02:52.272Z,21.00
2019-05-29T19:05:21.598Z,20.90
2019-05-29T19:07:51.163Z,20.90
2019-05-29T19:10:21.679Z,20.80
2019-05-29T19:12:53.257Z,20.60
2019-05-29T19:15:24.232Z,20.50
2019-05-29T19:17:53.859Z,20.40
2019-05-29T19:20:24.582Z,20.30
2019-05-29T19:22:54.683Z,20.20
2019-05-29T19:25:24.636Z,20.20
2019-05-29T19:27:57.113Z,20.10
2019-05-29T19:30:29.376Z,20.00
2019-05-29T19:32:59.202Z,19.90
2019-05-29T19:35:29.607Z,19.80
2019-05-29T19:37:59.690Z,19.70
2019-05-29T19:40:30.209Z,19.70
2019-05-29T19:42:59.940Z,19.60
2019-05-29T19:45:30.544Z,19.60
2019-05-29T19:48:00.180Z,19.50
2019-05-29T19:50:30.987Z,19.50
2019-05-29T19:53:01.040Z,19.40
2019-05-29T19:55:34.949Z,19.30
2019-05-29T19:58:06.044Z,19.30
2019-05-29T20:00:36.292Z,19.20
2019-05-29T20:03:06.316Z,19.10
2019-05-29T20:05:38.445Z,19.10
2019-05-29T20:08:08.916Z,19.00
2019-05-29T20:10:38.790Z,19.00
2019-05-29T20:13:08.457Z,18.90
2019-05-29T20:15:38.287Z,18.90
2019-05-29T20:18:09.033Z,18.80
2019-05-29T20:20:38.927Z,18.70
2019-05-29T20:23:09.293Z,18.70
2019-05-29T20:25:39.203Z,18.60
2019-05-29T20:28:08.796Z,18.60
2019-05-29T20:30:38.831Z,18.50
2019-05-29T20:33:09.002Z,18.50
2019-05-29T20:35:39.440Z,18.40
2019-05-29T20:38:09.386Z,18.40
2019-05-29T20:40:39.464Z,18.40
2019-05-29T20:43:09.495Z,18.30
2019-05-29T20:45:39.759Z,18.30
2019-05-29T20:48:09.816Z,18.30
2019-05-29T20:50:40.212Z,18.30
2019-05-29T20:53:10.554Z,18.30
2019-05-29T20:55:41.876Z,18.30
2019-05-29T20:58:24.200Z,18.30
2019-05-29T21:00:43.296Z,18.30
2019-05-29T21:03:12.890Z,18.20
2019-05-29T21:05:43.166Z,18.20
2019-05-29T21:08:12.355Z,18.20
2019-05-29T21:10:42.059Z,18.20
2019-05-29T21:13:11.352Z,18.20
2019-05-29T21:15:40.181Z,18.20
2019-05-29T21:18:08.853Z,18.10
2019-05-29T21:20:38.355Z,18.10
2019-05-29T21:23:07.017Z,18.00
2019-05-29T21:25:36.571Z,18.00
2019-05-29T21:28:05.841Z,17.90
2019-05-29T21:30:35.505Z,17.90
2019-05-29T21:33:04.445Z,17.90
2019-05-29T21:35:32.889Z,17.90
2019-05-29T21:38:01.483Z,17.80
2019-05-29T21:40:29.921Z,17.80
2019-05-29T21:42:58.520Z,17.80
2019-05-29T21:45:27.516Z,17.80
2019-05-29T21:47:56.016Z,17.80
2019-05-29T21:50:24.449Z,17.80
2019-05-29T21:52:53.302Z,17.80
2019-05-29T21:55:21.738Z,17.80
2019-05-29T21:57:50.437Z,17.80
2019-05-29T22:00:46.303Z,17.70
2019-05-29T22:03:14.877Z,17.70
2019-05-29T22:05:44.625Z,17.70
2019-05-29T22:08:13.425Z,17.60
2019-05-29T22:10:41.862Z,17.60
2019-05-29T22:13:10.358Z,17.50
2019-05-29T22:15:38.855Z,17.40
2019-05-29T22:18:07.345Z,17.40
2019-05-29T22:20:35.777Z,17.30
2019-05-29T22:23:04.281Z,17.30
2019-05-29T22:25:34.541Z,17.30
2019-05-29T22:28:03.090Z,17.30
2019-05-29T22:30:31.538Z,17.30
2019-05-29T22:33:00.018Z,17.30
2019-05-29T22:35:28.464Z,17.30
2019-05-29T22:37:57.714Z,17.30
2019-05-29T22:40:26.288Z,17.30
2019-05-29T22:42:55.597Z,17.30
2019-05-29T22:45:24.741Z,17.30
2019-05-29T22:47:53.736Z,17.20
2019-05-29T22:50:22.305Z,17.20
2019-05-29T22:52:51.766Z,17.20
2019-05-29T22:55:20.453Z,17.20
2019-05-29T22:57:49.366Z,17.10
2019-05-29T23:00:17.974Z,17.20
2019-05-29T23:02:46.857Z,17.10
2019-05-29T23:05:15.993Z,17.10
2019-05-29T23:07:44.589Z,17.10
2019-05-29T23:10:14.396Z,17.00
2019-05-29T23:12:42.888Z,17.00
2019-05-29T23:15:11.393Z,17.00
2019-05-29T23:17:39.961Z,16.90
2019-05-29T23:20:09.325Z,16.90
2019-05-29T23:22:37.765Z,16.90
2019-05-29T23:25:06.791Z,16.80
2019-05-29T23:27:35.445Z,16.70
2019-05-29T23:30:04.105Z,16.70
2019-05-29T23:32:32.538Z,16.60
2019-05-29T23:35:01.491Z,16.60
2019-05-29T23:37:29.935Z,16.60
2019-05-29T23:39:59.303Z,16.50
2019-05-29T23:42:27.984Z,16.40
2019-05-29T23:44:57.619Z,16.40
2019-05-29T23:47:26.590Z,16.40
2019-05-29T23:49:55.535Z,16.30
2019-05-29T23:52:24.238Z,16.30
2019-05-29T23:54:53.553Z,16.30
2019-05-29T23:57:22.126Z,16.30
